Time;durP1;ratioP1;P1;durP2;ratioP2;P2;SDS_P1;SDS_P2;PMS_P1;PMS_P2;Temp;Humidity;BMP_temperature;BMP_pressure;BME280_temperature;BME280_humidity;BME280_pressure;Samples;Min_cycle;Max_cycle;Signal;HPM_P1;HPM_P2
2022/06/22 00:01:18;;;;;;;11.00;10.10;;;22.40;94.40;;;;;;5100784;28;20468;-47
2022/06/22 00:03:48;;;;;;;10.27;9.33;;;22.40;94.90;;;;;;5096313;28;20431;-49
2022/06/22 00:06:25;;;;;;;9.57;8.67;;;22.30;95.00;;;;;;5099525;28;20438;-48
2022/06/22 00:08:51;;;;;;;9.57;8.87;;;22.30;94.90;;;;;;5099970;28;20416;-46
2022/06/22 00:11:17;;;;;;;9.03;8.10;;;22.30;94.90;;;;;;5098832;28;20446;-48
2022/06/22 00:13:51;;;;;;;10.17;9.17;;;22.30;94.90;;;;;;5099779;28;20448;-50
2022/06/22 00:16:22;;;;;;;9.83;9.03;;;22.30;95.00;;;;;;5099135;28;20280;-46
2022/06/22 00:18:50;;;;;;;10.07;9.23;;;22.30;94.90;;;;;;5098798;28;20443;-47
2022/06/22 00:21:15;;;;;;;10.00;9.30;;;22.30;94.90;;;;;;5098151;28;20565;-50
2022/06/22 00:23:44;;;;;;;10.20;9.40;;;22.30;94.80;;;;;;5098952;28;20514;-47
2022/06/22 00:26:24;;;;;;;9.50;8.80;;;22.30;94.80;;;;;;5099472;28;20481;-47
2022/06/22 00:28:56;;;;;;;9.17;8.47;;;22.30;94.90;;;;;;5097987;28;20435;-46
2022/06/22 00:31:43;;;;;;;9.73;8.77;;;22.30;94.90;;;;;;5098588;28;20472;-49
2022/06/22 00:34:09;;;;;;;9.03;8.23;;;22.20;95.00;;;;;;5099536;28;20456;-47
2022/06/22 00:36:46;;;;;;;9.60;8.90;;;22.20;95.20;;;;;;5098798;28;20493;-48
2022/06/22 00:39:21;;;;;;;9.13;8.43;;;22.10;95.20;;;;;;5098977;28;20500;-49
2022/06/22 00:42:00;;;;;;;11.27;10.10;;;22.10;95.40;;;;;;5098064;28;20469;-47
2022/06/22 00:44:30;;;;;;;10.27;9.37;;;22.00;95.50;;;;;;5098560;28;20417;-57
2022/06/22 00:47:03;;;;;;;9.80;8.90;;;22.00;95.80;;;;;;5090871;28;20433;-47
2022/06/22 00:49:29;;;;;;;9.77;8.77;;;22.00;95.80;;;;;;5067073;28;20421;-48
2022/06/22 00:52:00;;;;;;;9.70;8.90;;;22.00;96.10;;;;;;5098564;28;20418;-50
2022/06/22 00:54:27;;;;;;;10.23;9.33;;;22.00;95.80;;;;;;5098278;28;20428;-46
2022/06/22 00:57:35;;;;;;;10.53;9.63;;;22.00;95.90;;;;;;5098411;28;20436;-47
2022/06/22 01:00:06;;;;;;;10.10;9.40;;;22.00;95.70;;;;;;5039260;28;20915;-48
2022/06/22 01:02:44;;;;;;;9.70;8.90;;;22.00;95.80;;;;;;5091655;28;20443;-48
2022/06/22 01:05:37;;;;;;;9.47;8.77;;;22.00;95.90;;;;;;5099315;28;20412;-48
2022/06/22 01:08:22;;;;;;;10.20;9.30;;;22.00;95.90;;;;;;5097674;28;20460;-48
2022/06/22 01:12:16;;;;;;;10.63;9.63;;;22.00;95.90;;;;;;5097756;28;20415;-48
2022/06/22 01:13:56;;;;;;;10.43;9.70;;;22.00;96.50;;;;;;5097544;28;20437;-48
2022/06/22 01:16:34;;;;;;;9.93;9.10;;;21.90;96.50;;;;;;5097814;28;20468;-50
2022/06/22 01:19:06;;;;;;;10.70;9.80;;;21.90;96.50;;;;;;5086528;28;20436;-50
2022/06/22 01:21:39;;;;;;;10.10;9.30;;;21.90;96.40;;;;;;5096260;28;20470;-49
2022/06/22 01:24:24;;;;;;;10.27;9.47;;;21.90;96.30;;;;;;5097920;28;20419;-46
2022/06/22 01:27:18;;;;;;;9.80;9.10;;;21.90;96.30;;;;;;5097757;28;20465;-47
2022/06/22 01:30:00;;;;;;;10.20;9.23;;;21.90;96.30;;;;;;5078411;28;20423;-48
2022/06/22 01:32:35;;;;;;;10.53;9.63;;;22.00;96.60;;;;;;5086713;28;20863;-47
2022/06/22 01:35:04;;;;;;;10.43;9.53;;;21.90;96.90;;;;;;5097433;28;20453;-48
2022/06/22 01:37:32;;;;;;;11.20;10.30;;;21.90;97.00;;;;;;5069852;28;20429;-50
2022/06/22 01:40:22;;;;;;;12.27;11.37;;;21.80;97.30;;;;;;5059940;28;20556;-51
2022/06/22 01:43:13;;;;;;;11.37;10.37;;;21.70;97.60;;;;;;5090122;28;20502;-47
2022/06/22 01:45:49;;;;;;;13.07;11.83;;;21.70;97.80;;;;;;5096555;28;20426;-50
2022/06/22 01:48:35;;;;;;;13.17;11.97;;;21.60;98.00;;;;;;5097892;28;20461;-47
2022/06/22 01:51:22;;;;;;;13.17;12.07;;;21.50;98.20;;;;;;5096792;28;20420;-47
2022/06/22 01:54:14;;;;;;;11.30;10.47;;;21.40;98.30;;;;;;5095999;28;20502;-47
2022/06/22 01:57:06;;;;;;;11.63;10.63;;;21.40;98.10;;;;;;5097288;28;20527;-51
2022/06/22 01:59:47;;;;;;;10.90;10.10;;;21.40;98.10;;;;;;5085538;28;20431;-48
2022/06/22 02:02:18;;;;;;;12.77;11.50;;;21.50;98.10;;;;;;5097604;28;20791;-50
2022/06/22 02:04:50;;;;;;;12.20;11.23;;;21.50;98.40;;;;;;5096999;28;20422;-49
2022/06/22 02:10:23;;;;;;;13.93;12.83;;;21.50;99.70;;;;;;5097053;28;20481;-47
2022/06/22 02:13:11;;;;;;;14.10;12.90;;;21.30;99.90;;;;;;5098091;28;20433;-50
2022/06/22 02:15:40;;;;;;;12.77;11.77;;;21.20;99.90;;;;;;5096876;28;20423;-49
2022/06/22 02:18:26;;;;;;;12.80;11.80;;;21.10;99.90;;;;;;5077991;28;20435;-48
2022/06/22 02:20:59;;;;;;;12.87;11.77;;;21.10;99.90;;;;;;5080982;28;20473;-46
2022/06/22 02:23:30;;;;;;;11.80;10.90;;;21.10;99.90;;;;;;5097265;28;20445;-49
2022/06/22 02:26:05;;;;;;;13.70;12.60;;;21.10;99.90;;;;;;5096055;28;20419;-50
2022/06/22 02:28:31;;;;;;;13.40;12.20;;;21.20;99.90;;;;;;5098609;28;20439;-49
2022/06/22 02:30:58;;;;;;;13.30;12.20;;;21.30;99.90;;;;;;5097903;28;20569;-47
2022/06/22 02:33:24;;;;;;;12.87;11.87;;;21.30;99.90;;;;;;5098177;28;20559;-46
2022/06/22 02:35:52;;;;;;;14.23;13.20;;;21.40;99.90;;;;;;5098017;28;20424;-49
2022/06/22 02:38:17;;;;;;;12.57;11.67;;;21.40;99.90;;;;;;5097647;28;20414;-51
2022/06/22 02:46:18;;;;;;;14.13;13.13;;;21.50;99.90;;;;;;5103366;28;20418;-48
2022/06/22 02:48:53;;;;;;;12.70;11.60;;;21.40;99.90;;;;;;5104525;28;20429;-49
2022/06/22 02:51:29;;;;;;;12.43;11.47;;;21.30;99.90;;;;;;5103090;28;20437;-48
2022/06/22 02:53:57;;;;;;;13.30;12.10;;;21.30;99.90;;;;;;5104313;28;20904;-48
2022/06/22 02:56:27;;;;;;;13.93;12.83;;;21.40;99.90;;;;;;5104211;28;20436;-48
2022/06/22 02:58:53;;;;;;;13.33;12.10;;;21.30;99.90;;;;;;5103641;28;20522;-48
2022/06/22 03:01:25;;;;;;;12.77;11.87;;;21.30;99.90;;;;;;5103022;28;20474;-47
2022/06/22 03:03:57;;;;;;;13.90;12.50;;;21.30;99.90;;;;;;5103733;28;20194;-47
2022/06/22 03:06:30;;;;;;;12.13;11.17;;;21.20;99.90;;;;;;5103486;28;20427;-52
2022/06/22 03:08:58;;;;;;;13.83;12.40;;;21.20;99.90;;;;;;5103914;28;20438;-50
2022/06/22 03:11:23;;;;;;;12.73;11.80;;;21.30;99.90;;;;;;5103783;28;20435;-48
2022/06/22 03:14:05;;;;;;;13.30;12.30;;;21.30;99.90;;;;;;5091968;28;20976;-48
2022/06/22 03:16:38;;;;;;;13.80;12.70;;;21.30;99.90;;;;;;5082684;28;20176;-49
2022/06/22 03:19:13;;;;;;;12.70;11.80;;;21.30;99.90;;;;;;5083689;28;20424;-51
2022/06/22 03:21:40;;;;;;;12.73;11.73;;;21.30;99.90;;;;;;5081733;28;20467;-47
2022/06/22 03:24:21;;;;;;;12.57;11.67;;;21.40;99.90;;;;;;5081016;28;20495;-48
2022/06/22 03:26:54;;;;;;;11.83;10.93;;;21.40;99.90;;;;;;5096525;28;20440;-52
2022/06/22 03:29:27;;;;;;;12.80;11.80;;;21.40;99.90;;;;;;5103510;28;20420;-49
2022/06/22 03:31:57;;;;;;;12.80;11.80;;;21.40;99.90;;;;;;5101501;28;20495;-47
2022/06/22 03:34:39;;;;;;;12.87;11.60;;;21.30;99.90;;;;;;5101714;28;20411;-46
2022/06/22 03:37:17;;;;;;;14.27;13.07;;;21.30;99.90;;;;;;5101019;28;20456;-49
2022/06/22 03:39:47;;;;;;;13.93;12.60;;;21.30;99.90;;;;;;5101323;28;20431;-49
2022/06/22 03:42:21;;;;;;;12.40;11.40;;;21.20;99.90;;;;;;5102783;28;20792;-49
2022/06/22 03:44:58;;;;;;;13.60;12.40;;;21.20;99.90;;;;;;5102065;28;20426;-52
2022/06/22 03:47:31;;;;;;;13.63;12.53;;;21.10;99.90;;;;;;5100690;28;20489;-47
2022/06/22 03:50:18;;;;;;;12.33;11.40;;;21.00;99.90;;;;;;5102279;28;20458;-47
2022/06/22 03:52:44;;;;;;;13.20;12.17;;;21.00;99.90;;;;;;5100959;28;20423;-47
2022/06/22 03:55:28;;;;;;;11.90;10.90;;;21.10;99.90;;;;;;5100665;28;20433;-49
2022/06/22 03:57:56;;;;;;;12.93;11.93;;;21.20;99.90;;;;;;5097293;28;20203;-48
2022/06/22 04:00:22;;;;;;;11.33;10.40;;;21.20;99.90;;;;;;5098529;28;20465;-48
2022/06/22 04:02:48;;;;;;;11.43;10.57;;;21.30;99.90;;;;;;5099267;28;20701;-47
2022/06/22 04:05:17;;;;;;;11.40;10.60;;;21.40;99.90;;;;;;5062279;28;20442;-52
2022/06/22 04:07:44;;;;;;;12.40;11.30;;;21.50;99.90;;;;;;5084981;28;20239;-47
2022/06/22 04:10:54;;;;;;;11.73;10.63;;;21.50;99.90;;;;;;5097961;28;20518;-48
2022/06/22 04:13:25;;;;;;;11.63;10.80;;;21.60;99.90;;;;;;5015216;28;20475;-49
2022/06/22 04:16:19;;;;;;;11.67;10.63;;;21.70;99.80;;;;;;5084095;28;20489;-48
2022/06/22 04:18:49;;;;;;;11.60;10.50;;;21.70;99.50;;;;;;5057979;28;20453;-47
2022/06/22 04:21:20;;;;;;;10.70;10.00;;;21.70;99.40;;;;;;5075395;28;20481;-47
2022/06/22 04:23:58;;;;;;;11.63;10.63;;;21.70;99.40;;;;;;5082738;28;20430;-49
2022/06/22 04:26:44;;;;;;;12.30;11.30;;;21.70;99.30;;;;;;5096018;28;20423;-49
2022/06/22 04:29:26;;;;;;;11.73;10.83;;;21.70;99.20;;;;;;5096228;28;20866;-48
2022/06/22 04:32:09;;;;;;;12.23;11.20;;;21.70;99.30;;;;;;5095090;28;20508;-50
2022/06/22 04:34:48;;;;;;;12.10;11.00;;;21.70;99.40;;;;;;5096888;28;20423;-52
2022/06/22 04:37:40;;;;;;;12.00;11.13;;;21.60;99.40;;;;;;5097220;28;20871;-51
2022/06/22 04:40:32;;;;;;;12.23;11.23;;;21.60;99.50;;;;;;5098129;28;20465;-53
2022/06/22 04:43:02;;;;;;;12.53;11.53;;;21.60;99.50;;;;;;5096546;28;20459;-50
2022/06/22 04:45:31;;;;;;;11.30;10.40;;;21.70;99.40;;;;;;5096977;28;20776;-51
2022/06/22 04:48:02;;;;;;;11.63;10.60;;;21.70;99.30;;;;;;5097180;28;20418;-54
2022/06/22 04:50:28;;;;;;;12.60;11.60;;;21.70;99.40;;;;;;5095610;28;20432;-53
2022/06/22 04:52:55;;;;;;;11.97;11.07;;;21.80;99.20;;;;;;5095590;28;20438;-54
2022/06/22 04:55:24;;;;;;;11.47;10.57;;;21.90;99.30;;;;;;5091372;28;20248;-54
2022/06/22 04:57:55;;;;;;;12.50;11.30;;;21.90;99.30;;;;;;5095428;28;20461;-54
2022/06/22 05:00:27;;;;;;;12.30;11.30;;;22.00;99.20;;;;;;5093629;28;20465;-52
2022/06/22 05:03:06;;;;;;;11.67;10.77;;;22.10;99.10;;;;;;5093533;28;20440;-51
2022/06/22 05:05:34;;;;;;;11.60;10.60;;;22.20;99.00;;;;;;5094367;28;20536;-55
2022/06/22 05:08:32;;;;;;;13.30;12.30;;;22.30;98.70;;;;;;5095129;28;20423;-54
2022/06/22 05:11:21;;;;;;;12.20;11.30;;;22.40;98.40;;;;;;5091149;28;20424;-52
2022/06/22 05:13:48;;;;;;;12.00;10.90;;;22.40;98.30;;;;;;5093430;28;20455;-54
2022/06/22 05:16:17;;;;;;;13.80;11.53;;;22.50;98.20;;;;;;5094633;28;20970;-52
2022/06/22 05:18:44;;;;;;;13.83;12.70;;;22.60;98.20;;;;;;5093127;28;20645;-52
2022/06/22 05:21:16;;;;;;;13.43;12.43;;;22.70;97.90;;;;;;5089346;28;20480;-50
2022/06/22 05:23:44;;;;;;;13.87;12.67;;;22.90;97.60;;;;;;5091806;28;20522;-55
2022/06/22 05:26:11;;;;;;;13.53;12.33;;;23.00;97.40;;;;;;5093206;28;20861;-52
2022/06/22 05:28:43;;;;;;;13.17;12.07;;;23.10;97.30;;;;;;5090782;28;20432;-50
2022/06/22 05:31:23;;;;;;;15.23;12.93;;;23.10;97.20;;;;;;5092072;28;20885;-52
2022/06/22 05:33:52;;;;;;;14.00;12.73;;;23.10;97.30;;;;;;5094146;28;20722;-53
2022/06/22 05:36:21;;;;;;;13.20;12.07;;;23.00;97.80;;;;;;5091790;28;20508;-50
2022/06/22 05:38:50;;;;;;;13.23;12.10;;;22.90;97.80;;;;;;5094370;28;20691;-55
2022/06/22 05:41:19;;;;;;;14.47;13.17;;;22.80;97.70;;;;;;5094651;28;20746;-54
2022/06/22 05:43:46;;;;;;;12.47;11.50;;;22.80;98.00;;;;;;5094326;28;20420;-51
2022/06/22 05:46:12;;;;;;;13.90;12.70;;;22.70;97.80;;;;;;5093586;28;20441;-53
2022/06/22 05:48:43;;;;;;;13.27;12.10;;;22.70;97.80;;;;;;5090859;28;20413;-55
2022/06/22 05:51:39;;;;;;;13.27;12.07;;;22.50;98.00;;;;;;5089668;28;20433;-52
2022/06/22 05:54:17;;;;;;;13.77;12.70;;;22.40;97.60;;;;;;5093441;28;20544;-54
2022/06/22 05:56:52;;;;;;;13.93;12.73;;;22.20;97.40;;;;;;5089630;28;20766;-51
2022/06/22 05:59:37;;;;;;;15.07;13.87;;;22.10;97.80;;;;;;5091014;28;20506;-54
2022/06/22 06:02:24;;;;;;;14.70;13.50;;;21.80;98.20;;;;;;5069319;28;20470;-51
2022/06/22 06:05:09;;;;;;;13.80;12.70;;;21.70;98.60;;;;;;5088909;28;20895;-49
2022/06/22 06:07:51;;;;;;;15.67;14.37;;;21.60;99.10;;;;;;5094577;28;20489;-51
2022/06/22 06:10:21;;;;;;;13.90;12.80;;;21.50;99.50;;;;;;5091023;28;20530;-49
2022/06/22 06:12:58;;;;;;;13.27;12.23;;;21.40;99.50;;;;;;5094012;28;20433;-52
2022/06/22 06:15:24;;;;;;;13.97;12.77;;;21.30;99.70;;;;;;5094205;28;20429;-52
2022/06/22 06:17:53;;;;;;;13.77;12.63;;;21.20;99.80;;;;;;5094402;28;20437;-52
2022/06/22 06:20:34;;;;;;;14.83;13.53;;;21.20;99.90;;;;;;5093682;28;20474;-52
2022/06/22 06:23:20;;;;;;;14.30;13.10;;;21.10;99.90;;;;;;5093461;28;20437;-53
2022/06/22 06:29:11;;;;;;;13.80;12.60;;;21.00;99.90;;;;;;5094160;28;20406;-54
2022/06/22 06:32:16;;;;;;;15.03;13.70;;;20.90;99.90;;;;;;5036532;28;20767;-50
2022/06/22 06:34:59;;;;;;;14.83;13.50;;;20.80;99.90;;;;;;5093136;28;20507;-51
2022/06/22 06:37:46;;;;;;;15.70;14.20;;;20.70;99.90;;;;;;5095285;28;20447;-50
2022/06/22 06:40:17;;;;;;;16.40;14.90;;;20.70;99.90;;;;;;5094001;28;20476;-49
2022/06/22 06:42:56;;;;;;;15.40;13.77;;;20.60;99.90;;;;;;5090762;28;20426;-51
2022/06/22 06:45:23;;;;;;;16.07;14.67;;;20.60;99.90;;;;;;5073211;28;20427;-52
2022/06/22 06:47:53;;;;;;;14.70;13.60;;;20.50;99.90;;;;;;5092136;28;20724;-54
2022/06/22 06:50:38;;;;;;;14.63;13.43;;;20.50;99.90;;;;;;5089273;28;20411;-52
2022/06/22 06:53:25;;;;;;;13.50;12.17;;;20.60;99.90;;;;;;5090602;28;20464;-51
2022/06/22 06:56:06;;;;;;;13.27;12.20;;;20.70;99.90;;;;;;5075122;28;20847;-51
2022/06/22 06:58:53;;;;;;;13.63;12.20;;;20.80;99.90;;;;;;5078139;28;20433;-52
2022/06/22 07:01:30;;;;;;;13.50;12.33;;;21.00;99.90;;;;;;5092144;28;20487;-52
2022/06/22 07:04:07;;;;;;;14.17;12.73;;;21.10;99.90;;;;;;5091822;28;20430;-51
2022/06/22 07:06:34;;;;;;;15.17;13.87;;;21.20;99.90;;;;;;5092944;28;20424;-54
2022/06/22 07:09:31;;;;;;;14.73;13.57;;;21.30;99.90;;;;;;5092312;28;20439;-53
2022/06/22 07:12:27;;;;;;;13.77;12.53;;;21.40;99.90;;;;;;5090018;28;20490;-51
2022/06/22 07:14:53;;;;;;;14.60;13.40;;;21.50;99.90;;;;;;5092884;28;20441;-53
2022/06/22 07:17:21;;;;;;;13.90;12.80;;;21.60;99.90;;;;;;5093912;28;20420;-52
2022/06/22 07:19:53;;;;;;;13.40;12.37;;;21.70;99.90;;;;;;5092607;28;20419;-54
2022/06/22 07:22:23;;;;;;;12.77;11.73;;;21.80;99.90;;;;;;5092452;28;20431;-51
2022/06/22 07:25:24;;;;;;;13.60;12.50;;;22.00;99.90;;;;;;5094536;28;20798;-53
2022/06/22 07:28:24;;;;;;;13.87;12.67;;;22.20;99.90;;;;;;5069990;28;20768;-53
2022/06/22 07:31:11;;;;;;;13.63;12.43;;;22.40;99.90;;;;;;5092131;28;20990;-54
2022/06/22 07:34:04;;;;;;;13.07;11.97;;;22.60;99.90;;;;;;5075465;28;20436;-57
2022/06/22 07:36:47;;;;;;;12.70;11.40;;;22.80;99.90;;;;;;5089405;28;20796;-56
2022/06/22 07:39:25;;;;;;;12.97;11.73;;;23.00;99.90;;;;;;5096231;28;20427;-53
2022/06/22 07:41:50;;;;;;;13.83;12.73;;;23.10;98.70;;;;;;5097387;28;20488;-53
2022/06/22 07:44:31;;;;;;;13.17;11.90;;;23.20;98.50;;;;;;5095826;28;21055;-53
2022/06/22 07:47:08;;;;;;;13.00;11.80;;;23.20;98.90;;;;;;5075084;28;20177;-53
2022/06/22 07:49:43;;;;;;;14.27;12.97;;;23.10;98.70;;;;;;5094763;28;20420;-56
2022/06/22 07:52:14;;;;;;;12.87;11.53;;;23.00;98.70;;;;;;5095930;28;20821;-52
2022/06/22 07:54:52;;;;;;;13.80;12.50;;;23.00;98.90;;;;;;5096457;28;20428;-55
2022/06/22 07:57:26;;;;;;;13.07;11.87;;;23.00;99.10;;;;;;5095822;28;20889;-53
2022/06/22 08:00:03;;;;;;;13.10;12.10;;;23.00;99.40;;;;;;5095785;28;20424;-55
2022/06/22 08:02:48;;;;;;;12.80;11.80;;;22.80;99.60;;;;;;5096255;28;20445;-52
2022/06/22 08:05:17;;;;;;;12.80;11.70;;;22.70;99.60;;;;;;5096501;28;20926;-56
2022/06/22 08:08:12;;;;;;;14.00;12.80;;;22.70;99.30;;;;;;5096318;28;20444;-56
2022/06/22 08:10:43;;;;;;;13.87;12.50;;;22.90;99.70;;;;;;5085697;28;20430;-56
2022/06/22 08:13:16;;;;;;;12.53;11.43;;;23.00;99.60;;;;;;5095306;28;20859;-53
2022/06/22 08:15:45;;;;;;;12.33;11.13;;;23.20;99.90;;;;;;5094597;28;21099;-51
2022/06/22 08:18:12;;;;;;;14.40;13.20;;;23.30;99.60;;;;;;5094893;28;20903;-55
2022/06/22 08:20:41;;;;;;;11.77;10.67;;;23.40;99.60;;;;;;5095720;28;20453;-52
2022/06/22 08:23:13;;;;;;;13.80;12.70;;;23.50;99.20;;;;;;5095200;28;20518;-56
2022/06/22 08:25:39;;;;;;;11.73;10.67;;;23.50;98.50;;;;;;5094816;28;20514;-54
2022/06/22 08:28:06;;;;;;;13.17;11.97;;;23.40;98.70;;;;;;5096487;28;20430;-56
2022/06/22 08:30:31;;;;;;;12.97;11.93;;;23.40;98.90;;;;;;5097063;28;20235;-56
2022/06/22 08:33:08;;;;;;;13.20;11.23;;;23.40;99.10;;;;;;5096409;28;20453;-56
2022/06/22 08:35:49;;;;;;;14.93;13.73;;;23.50;98.50;;;;;;5095896;28;20214;-55
2022/06/22 08:38:29;;;;;;;14.87;13.47;;;23.50;98.40;;;;;;5096086;28;20422;-53
2022/06/22 08:41:01;;;;;;;13.10;11.90;;;23.30;98.90;;;;;;5095283;28;20870;-53
2022/06/22 08:43:42;;;;;;;12.47;11.30;;;23.30;98.90;;;;;;5092560;28;20473;-54
2022/06/22 08:46:07;;;;;;;13.70;12.50;;;23.30;98.60;;;;;;5095759;28;20702;-56
2022/06/22 08:49:08;;;;;;;12.33;11.33;;;23.30;99.00;;;;;;5095442;28;20598;-57
2022/06/22 08:51:59;;;;;;;12.80;11.90;;;23.30;99.10;;;;;;5096699;28;20218;-56
2022/06/22 08:54:45;;;;;;;12.87;11.57;;;23.30;98.80;;;;;;5095817;28;20449;-57
2022/06/22 08:57:38;;;;;;;14.47;13.13;;;23.20;98.80;;;;;;5095641;28;20500;-54
2022/06/22 09:00:21;;;;;;;14.60;13.20;;;23.20;99.10;;;;;;5095494;28;20413;-55
2022/06/22 09:02:55;;;;;;;15.30;13.70;;;23.10;99.50;;;;;;5094722;28;20438;-55
2022/06/22 09:05:27;;;;;;;14.60;13.33;;;23.00;99.90;;;;;;5095769;28;20446;-53
2022/06/22 09:07:58;;;;;;;16.07;13.17;;;22.80;99.90;;;;;;5096475;28;20478;-53
2022/06/22 09:10:33;;;;;;;14.63;13.53;;;22.80;99.90;;;;;;5094878;28;20432;-57
2022/06/22 09:13:32;;;;;;;14.00;12.87;;;22.70;99.90;;;;;;5091451;28;20425;-55
2022/06/22 09:16:03;;;;;;;14.50;13.30;;;22.70;99.90;;;;;;5091987;28;20434;-56
2022/06/22 09:18:40;;;;;;;12.87;11.87;;;22.80;99.90;;;;;;5089785;28;20487;-55
2022/06/22 09:21:27;;;;;;;13.90;12.87;;;22.80;99.90;;;;;;5092674;28;20553;-55
2022/06/22 09:24:11;;;;;;;13.13;12.13;;;22.80;99.90;;;;;;5094582;28;20423;-53
2022/06/22 09:26:55;;;;;;;14.73;13.53;;;22.80;99.90;;;;;;5094392;28;20427;-54
2022/06/22 09:29:31;;;;;;;16.40;15.03;;;22.80;99.90;;;;;;5095831;28;20405;-54
2022/06/22 09:32:12;;;;;;;17.07;15.67;;;22.80;99.90;;;;;;5094017;28;20463;-55
2022/06/22 09:34:50;;;;;;;16.50;15.00;;;22.80;99.90;;;;;;5097068;28;20453;-54
2022/06/22 09:37:37;;;;;;;16.57;15.07;;;22.70;99.90;;;;;;5096445;28;20427;-53
2022/06/22 09:40:41;;;;;;;16.63;15.33;;;22.60;99.90;;;;;;5095918;28;20400;-55
2022/06/22 09:43:29;;;;;;;14.93;13.73;;;22.60;99.90;;;;;;5074231;28;20429;-55
2022/06/22 09:46:09;;;;;;;14.80;13.50;;;22.60;99.90;;;;;;5074110;28;20509;-54
2022/06/22 09:48:58;;;;;;;13.27;12.17;;;22.70;99.90;;;;;;5072081;28;20703;-51
2022/06/22 09:51:44;;;;;;;13.50;12.27;;;22.80;99.90;;;;;;5082836;28;20536;-54
2022/06/22 09:57:36;;;;;;;16.33;13.10;;;23.00;98.90;;;;;;5094450;28;20423;-53
2022/06/22 10:00:07;;;;;;;14.93;13.63;;;23.00;98.30;;;;;;5072963;28;20750;-50
2022/06/22 10:02:38;;;;;;;13.47;12.30;;;22.90;99.30;;;;;;5077651;28;20451;-53
2022/06/22 10:05:16;;;;;;;14.27;13.07;;;22.80;99.20;;;;;;5095521;28;20452;-54
2022/06/22 10:08:03;;;;;;;14.33;13.23;;;22.60;99.80;;;;;;5094798;28;20424;-55
2022/06/22 10:10:58;;;;;;;14.33;12.83;;;22.50;99.90;;;;;;5094932;28;20461;-54
2022/06/22 10:13:35;;;;;;;13.60;12.23;;;22.40;99.90;;;;;;5067629;28;20424;-55
2022/06/22 10:16:22;;;;;;;12.73;11.70;;;22.30;99.90;;;;;;5095372;28;20422;-53
2022/06/22 10:19:09;;;;;;;12.50;11.30;;;22.20;99.90;;;;;;5092494;28;20421;-54
2022/06/22 10:22:03;;;;;;;12.43;11.20;;;22.10;99.90;;;;;;5090809;28;20566;-54
2022/06/22 10:24:54;;;;;;;12.23;11.23;;;22.10;99.90;;;;;;5090191;28;20410;-55
2022/06/22 10:27:42;;;;;;;11.27;10.37;;;22.10;99.90;;;;;;5091382;28;20441;-55
2022/06/22 10:30:26;;;;;;;11.00;10.10;;;22.20;99.90;;;;;;5089499;28;20399;-55
2022/06/22 10:33:03;;;;;;;10.83;9.90;;;22.20;99.70;;;;;;5090659;28;20471;-55
2022/06/22 10:35:50;;;;;;;11.50;10.40;;;22.30;99.70;;;;;;5091961;28;20408;-54
2022/06/22 10:38:26;;;;;;;11.53;10.30;;;22.40;99.90;;;;;;5077368;28;20435;-55
2022/06/22 10:47:16;;;;;;;11.07;10.10;;;22.50;99.40;;;;;;5080371;28;20428;-56
2022/06/22 10:50:00;;;;;;;14.00;10.67;;;22.60;99.20;;;;;;5092254;28;20413;-52
2022/06/22 10:52:34;;;;;;;11.70;10.73;;;22.60;99.40;;;;;;5093231;28;20421;-55
2022/06/22 10:55:15;;;;;;;10.00;9.20;;;22.70;99.60;;;;;;5093259;28;20505;-54
2022/06/22 10:58:05;;;;;;;10.90;10.00;;;22.70;99.60;;;;;;5092920;28;20816;-55
2022/06/22 11:00:39;;;;;;;13.97;10.57;;;22.90;99.90;;;;;;5093454;28;20465;-55
2022/06/22 11:03:17;;;;;;;10.73;9.90;;;22.90;99.90;;;;;;5091207;28;20436;-57
2022/06/22 11:06:04;;;;;;;10.53;9.73;;;22.90;99.90;;;;;;5094845;28;20415;-56
2022/06/22 11:08:36;;;;;;;11.43;10.33;;;22.90;99.80;;;;;;5080780;28;20426;-55
2022/06/22 11:11:20;;;;;;;10.53;9.63;;;22.80;99.90;;;;;;5096315;28;20438;-56
2022/06/22 11:14:03;;;;;;;11.63;10.63;;;22.80;99.90;;;;;;5076335;28;20410;-55
2022/06/22 11:16:50;;;;;;;12.83;11.60;;;22.80;99.90;;;;;;5093514;28;20436;-53
2022/06/22 11:19:37;;;;;;;12.37;11.17;;;22.70;99.90;;;;;;5086675;28;20436;-54
2022/06/22 11:22:32;;;;;;;12.97;11.77;;;22.60;99.90;;;;;;5099309;28;20469;-55
2022/06/22 11:25:05;;;;;;;10.80;10.00;;;22.40;99.90;;;;;;5097436;28;20827;-54
2022/06/22 11:30:48;;;;;;;14.47;13.27;;;22.20;99.90;;;;;;5097502;28;20911;-55
2022/06/22 11:33:51;;;;;;;13.63;12.40;;;22.00;99.90;;;;;;5095798;28;21026;-57
2022/06/22 11:36:29;;;;;;;13.40;12.10;;;21.80;99.90;;;;;;5095191;28;20441;-54
2022/06/22 11:39:16;;;;;;;13.63;12.23;;;21.80;99.90;;;;;;5094331;28;20965;-54
2022/06/22 11:42:14;;;;;;;11.43;10.43;;;21.80;99.90;;;;;;5097493;28;20594;-55
2022/06/22 11:47:48;;;;;;;14.23;11.30;;;21.90;99.90;;;;;;5086836;28;20411;-55
2022/06/22 11:50:20;;;;;;;12.23;11.03;;;21.70;99.90;;;;;;5095974;28;20409;-50
2022/06/22 11:52:52;;;;;;;10.93;8.53;;;21.70;99.90;;;;;;5094514;28;20423;-55
2022/06/22 11:55:26;;;;;;;13.50;10.37;;;21.70;99.90;;;;;;5094932;28;20515;-55
2022/06/22 11:58:01;;;;;;;11.27;9.50;;;21.70;99.90;;;;;;5085347;28;20455;-54
2022/06/22 12:00:36;;;;;;;9.53;8.63;;;21.50;99.90;;;;;;5081302;28;20881;-55
2022/06/22 12:03:07;;;;;;;12.73;8.73;;;21.60;99.90;;;;;;5095386;28;20434;-55
2022/06/22 12:06:31;;;;;;;12.27;8.20;;;21.70;99.90;;;;;;5097941;28;20416;-53
2022/06/22 12:09:31;;;;;;;14.27;6.33;;;21.70;99.90;;;;;;5035850;28;20426;-55
2022/06/22 12:12:09;;;;;;;7.40;6.20;;;21.70;99.90;;;;;;5082780;28;20768;-50
2022/06/22 12:15:16;;;;;;;10.67;5.47;;;21.70;99.90;;;;;;5090136;28;20422;-55
2022/06/22 12:18:16;;;;;;;10.40;5.73;;;21.70;99.90;;;;;;5051800;28;20717;-55
2022/06/22 12:20:47;;;;;;;8.30;5.13;;;21.80;99.90;;;;;;5093250;28;20475;-53
2022/06/22 12:23:45;;;;;;;6.17;4.73;;;21.90;99.90;;;;;;5096551;28;20437;-55
2022/06/22 12:26:38;;;;;;;12.60;5.60;;;22.10;99.90;;;;;;5096950;28;20416;-52
2022/06/22 12:29:40;;;;;;;9.77;5.67;;;22.20;99.90;;;;;;5098300;28;20844;-55
2022/06/22 12:32:23;;;;;;;13.50;5.50;;;22.40;99.60;;;;;;5097576;28;20495;-54
2022/06/22 12:35:00;;;;;;;13.33;5.80;;;22.50;99.40;;;;;;5095384;28;20432;-53
2022/06/22 12:37:30;;;;;;;11.50;5.23;;;22.70;99.10;;;;;;5096949;28;20741;-55
2022/06/22 12:40:02;;;;;;;13.30;6.03;;;22.80;99.10;;;;;;5097122;28;20431;-54
2022/06/22 12:43:02;;;;;;;7.63;4.50;;;23.00;98.30;;;;;;5094622;28;20915;-55
2022/06/22 12:45:48;;;;;;;10.97;5.10;;;23.00;98.60;;;;;;5095180;28;20700;-53
2022/06/22 12:48:38;;;;;;;11.87;5.30;;;23.10;98.30;;;;;;5076260;28;20825;-55
2022/06/22 12:51:36;;;;;;;8.40;5.10;;;23.20;98.10;;;;;;5073866;28;21327;-54
2022/06/22 12:54:19;;;;;;;9.73;4.97;;;23.30;98.30;;;;;;5078009;28;20432;-56
2022/06/22 12:56:50;;;;;;;16.23;7.20;;;23.40;98.30;;;;;;5097452;28;20511;-52
2022/06/22 12:59:32;;;;;;;13.67;5.70;;;23.50;97.40;;;;;;5094412;28;20429;-51
2022/06/22 13:01:59;;;;;;;16.83;6.57;;;23.70;97.40;;;;;;5095324;28;21049;-55
2022/06/22 13:04:32;;;;;;;9.97;5.17;;;23.70;96.50;;;;;;5093296;28;20434;-55
2022/06/22 13:07:02;;;;;;;13.50;5.80;;;23.80;96.70;;;;;;5073407;28;20528;-52
2022/06/22 13:09:29;;;;;;;12.30;5.10;;;23.90;96.90;;;;;;5096038;28;20436;-56
2022/06/22 13:11:58;;;;;;;13.13;4.80;;;24.00;96.80;;;;;;5094584;28;20529;-54
2022/06/22 13:14:28;;;;;;;8.37;4.70;;;24.20;97.00;;;;;;5093594;28;20513;-55
2022/06/22 13:17:13;;;;;;;11.27;5.17;;;24.30;96.30;;;;;;5090600;28;20491;-55
2022/06/22 13:19:53;;;;;;;15.00;4.77;;;24.40;96.10;;;;;;5092268;28;20458;-55
2022/06/22 13:22:29;;;;;;;10.90;5.37;;;24.40;94.90;;;;;;5095747;28;20462;-56
2022/06/22 13:25:23;;;;;;;9.90;4.63;;;24.20;95.10;;;;;;5094850;28;20415;-55
2022/06/22 13:27:58;;;;;;;10.10;5.37;;;24.20;95.30;;;;;;5096370;28;20441;-55
2022/06/22 13:30:45;;;;;;;9.93;6.00;;;24.40;95.50;;;;;;5093931;28;20836;-54
2022/06/22 13:33:22;;;;;;;9.07;5.20;;;24.70;95.20;;;;;;5093586;28;20462;-54
2022/06/22 13:36:16;;;;;;;11.90;5.20;;;25.00;95.00;;;;;;5094436;28;20443;-57
2022/06/22 13:39:23;;;;;;;11.50;5.10;;;25.10;94.80;;;;;;5094375;28;20551;-53
2022/06/22 13:42:09;;;;;;;8.37;4.43;;;25.10;94.30;;;;;;5086581;28;20834;-53
2022/06/22 13:45:14;;;;;;;11.83;5.47;;;25.10;94.40;;;;;;5094102;28;20411;-54
2022/06/22 13:47:58;;;;;;;11.13;5.10;;;25.10;94.50;;;;;;5094498;28;20851;-52
2022/06/22 13:50:32;;;;;;;15.83;5.63;;;25.10;95.00;;;;;;5091023;28;20582;-54
2022/06/22 13:53:16;;;;;;;9.33;6.33;;;25.30;94.40;;;;;;5089656;28;20957;-53
2022/06/22 13:55:48;;;;;;;12.17;4.73;;;25.30;94.60;;;;;;5091213;28;20406;-54